Terminal Aerodrome Forecast
Issued by NWS

Home | Current Version | Previous Version | Text Only | Print | Product List | Glossary On
Versions: 1 2 3 4 5 6 7 8 9 10 11 12 13 14
666
FTUS46 KMTR 200526
TAFSJC
TAF
KSJC 200526Z 2006/2106 26008KT P6SM SCT018
      TEMPO 2006/2008 BKN018
     FM200800 VRB03KT P6SM OVC015
     FM201200 14005KT P6SM OVC015
     FM201700 24004KT P6SM SCT025 BKN250
     FM201800 31012KT P6SM FEW030 BKN250
     FM210300 29008KT P6SM SCT025=

USA.gov is the U.S. government's official web portal to all federal, state and local government web resources and services.